KCBM/CBM METAR and TAF weather

Enter ICAO airport designator
Station Type Date Time Source
KCBM METAR 2022/11/30 22:55 UTC NOAA

KCBM 302255Z 35007KT 10SM CLR 08/M03 A3039 RMK AO2A PRESFR SLP297 ALSTG/SLP ESTMD T00811034 TSNO $


Station Type Date Time Source
KCBM Decoded METAR 2022/11/30 22:55 UTC NOAA

Columbus Air Force Base, MS, United States (KCBM) 33-39N 088-27W
Nov 30, 2022 - 05:55 PM EST / 2022.11.30 2255 UTC
Wind: from the N (350 degrees) at 8 MPH (7 KT):0
Visibility: 10 mile(s):0
Sky conditions: clear
Temperature: 46.6 F (8.1 C)
Dew Point: 25.9 F (-3.4 C)
Relative Humidity: 44%
Pressure (altimeter): 30.39 in. Hg (1029 hPa)
Pressure tendency: falling rapidly
ob: KCBM 302255Z 35007KT 10SM CLR 08/M03 A3039 RMK AO2A PRESFR SLP297 ALSTG/SLP ESTMD T00811034 TSNO
cycle: 23

Station Type Date Time Source
KCBM TAF 2022/11/30 18:03 UTC NOAA

TAF TAF KCBM 301800Z 3018/0124 35010G15KT 9999 SKC QNH3033INS
BECMG 3022/3023 35006KT 9999 SKC QNH3038INS
BECMG 0113/0114 05009KT 9999 FEW240 QNH3043INS TX13/3020Z TN01/0113Z

Example: see airport list